sensor_id;sensor_type;location;lat;lon;timestamp;P1;durP1;ratioP1;P2;durP2;ratioP2
47966;SDS011;33733;52.456;13.620;2022-11-15T00:01:27;13.20;;;4.35;;
47966;SDS011;33733;52.456;13.620;2022-11-15T00:04:12;13.55;;;5.45;;
47966;SDS011;33733;52.456;13.620;2022-11-15T00:06:57;8.77;;;4.32;;
47966;SDS011;33733;52.456;13.620;2022-11-15T00:09:43;9.57;;;4.28;;
47966;SDS011;33733;52.456;13.620;2022-11-15T00:12:30;10.52;;;4.25;;
47966;SDS011;33733;52.456;13.620;2022-11-15T00:15:15;13.60;;;5.07;;
47966;SDS011;33733;52.456;13.620;2022-11-15T00:18:00;11.02;;;5.57;;
47966;SDS011;33733;52.456;13.620;2022-11-15T00:20:45;14.52;;;5.63;;
47966;SDS011;33733;52.456;13.620;2022-11-15T00:23:30;12.05;;;5.38;;
47966;SDS011;33733;52.456;13.620;2022-11-15T00:26:16;11.18;;;4.68;;
47966;SDS011;33733;52.456;13.620;2022-11-15T00:29:02;10.52;;;5.35;;
47966;SDS011;33733;52.456;13.620;2022-11-15T00:31:47;7.85;;;3.83;;
47966;SDS011;33733;52.456;13.620;2022-11-15T00:34:32;9.82;;;4.47;;
47966;SDS011;33733;52.456;13.620;2022-11-15T00:37:17;12.35;;;4.63;;
47966;SDS011;33733;52.456;13.620;2022-11-15T00:40:02;15.65;;;5.35;;
47966;SDS011;33733;52.456;13.620;2022-11-15T00:42:47;11.18;;;5.03;;
47966;SDS011;33733;52.456;13.620;2022-11-15T00:45:32;9.73;;;4.18;;
47966;SDS011;33733;52.456;13.620;2022-11-15T00:48:18;10.77;;;4.85;;
47966;SDS011;33733;52.456;13.620;2022-11-15T00:51:03;11.05;;;4.13;;
47966;SDS011;33733;52.456;13.620;2022-11-15T00:53:48;8.85;;;3.90;;
47966;SDS011;33733;52.456;13.620;2022-11-15T00:56:34;11.13;;;4.90;;
47966;SDS011;33733;52.456;13.620;2022-11-15T00:59:19;10.10;;;4.88;;
47966;SDS011;33733;52.456;13.620;2022-11-15T01:02:04;11.50;;;5.72;;
47966;SDS011;33733;52.456;13.620;2022-11-15T01:04:49;8.85;;;4.32;;
47966;SDS011;33733;52.456;13.620;2022-11-15T01:07:34;11.65;;;5.28;;
47966;SDS011;33733;52.456;13.620;2022-11-15T01:10:20;11.07;;;4.70;;
47966;SDS011;33733;52.456;13.620;2022-11-15T01:13:05;12.45;;;4.97;;
47966;SDS011;33733;52.456;13.620;2022-11-15T01:15:51;9.48;;;4.32;;
47966;SDS011;33733;52.456;13.620;2022-11-15T01:18:36;11.80;;;5.07;;
47966;SDS011;33733;52.456;13.620;2022-11-15T01:21:21;10.52;;;5.18;;
47966;SDS011;33733;52.456;13.620;2022-11-15T01:24:07;11.05;;;5.53;;
47966;SDS011;33733;52.456;13.620;2022-11-15T01:26:52;9.85;;;4.95;;
47966;SDS011;33733;52.456;13.620;2022-11-15T01:29:37;8.90;;;4.13;;
47966;SDS011;33733;52.456;13.620;2022-11-15T01:32:22;11.35;;;4.53;;
47966;SDS011;33733;52.456;13.620;2022-11-15T01:35:07;11.32;;;5.05;;
47966;SDS011;33733;52.456;13.620;2022-11-15T01:37:53;8.40;;;4.28;;
47966;SDS011;33733;52.456;13.620;2022-11-15T01:40:38;9.18;;;4.60;;
47966;SDS011;33733;52.456;13.620;2022-11-15T01:46:27;11.25;;;5.70;;
47966;SDS011;33733;52.456;13.620;2022-11-15T01:49:15;9.85;;;5.80;;
47966;SDS011;33733;52.456;13.620;2022-11-15T01:52:02;9.75;;;4.78;;
47966;SDS011;33733;52.456;13.620;2022-11-15T01:54:50;13.05;;;4.68;;
47966;SDS011;33733;52.456;13.620;2022-11-15T01:57:39;9.95;;;4.55;;
47966;SDS011;33733;52.456;13.620;2022-11-15T02:00:27;9.02;;;4.20;;
47966;SDS011;33733;52.456;13.620;2022-11-15T02:03:13;9.25;;;4.53;;
47966;SDS011;33733;52.456;13.620;2022-11-15T02:05:58;9.40;;;4.28;;
47966;SDS011;33733;52.456;13.620;2022-11-15T02:08:44;8.82;;;3.90;;
47966;SDS011;33733;52.456;13.620;2022-11-15T02:11:29;8.02;;;4.30;;
47966;SDS011;33733;52.456;13.620;2022-11-15T02:14:15;10.00;;;5.00;;
47966;SDS011;33733;52.456;13.620;2022-11-15T02:17:05;8.65;;;4.15;;
47966;SDS011;33733;52.456;13.620;2022-11-15T02:33:44;7.03;;;3.33;;
47966;SDS011;33733;52.456;13.620;2022-11-15T02:36:15;8.27;;;3.40;;
47966;SDS011;33733;52.456;13.620;2022-11-15T02:42:02;11.73;;;4.53;;
47966;SDS011;33733;52.456;13.620;2022-11-15T02:44:49;16.42;;;5.78;;
47966;SDS011;33733;52.456;13.620;2022-11-15T02:47:37;11.98;;;4.88;;
47966;SDS011;33733;52.456;13.620;2022-11-15T02:50:28;12.80;;;6.38;;
47966;SDS011;33733;52.456;13.620;2022-11-15T02:53:14;10.43;;;4.75;;
47966;SDS011;33733;52.456;13.620;2022-11-15T02:55:59;10.02;;;3.78;;
47966;SDS011;33733;52.456;13.620;2022-11-15T03:02:11;7.82;;;3.60;;
47966;SDS011;33733;52.456;13.620;2022-11-15T03:05:04;6.75;;;3.35;;
47966;SDS011;33733;52.456;13.620;2022-11-15T03:07:59;13.48;;;4.75;;
47966;SDS011;33733;52.456;13.620;2022-11-15T03:13:59;10.02;;;3.83;;
47966;SDS011;33733;52.456;13.620;2022-11-15T03:19:45;8.38;;;3.42;;
47966;SDS011;33733;52.456;13.620;2022-11-15T03:22:40;10.65;;;4.72;;
47966;SDS011;33733;52.456;13.620;2022-11-15T03:25:27;11.48;;;3.83;;
47966;SDS011;33733;52.456;13.620;2022-11-15T03:28:17;8.70;;;4.10;;
47966;SDS011;33733;52.456;13.620;2022-11-15T03:31:05;7.97;;;3.35;;
47966;SDS011;33733;52.456;13.620;2022-11-15T03:34:13;10.55;;;5.15;;
47966;SDS011;33733;52.456;13.620;2022-11-15T03:37:04;10.25;;;4.97;;
47966;SDS011;33733;52.456;13.620;2022-11-15T03:39:49;10.15;;;5.07;;
47966;SDS011;33733;52.456;13.620;2022-11-15T03:45:33;8.93;;;4.57;;
47966;SDS011;33733;52.456;13.620;2022-11-15T03:48:22;7.25;;;3.25;;
47966;SDS011;33733;52.456;13.620;2022-11-15T03:51:10;7.32;;;3.63;;
47966;SDS011;33733;52.456;13.620;2022-11-15T03:53:55;14.90;;;3.95;;
47966;SDS011;33733;52.456;13.620;2022-11-15T03:56:41;8.68;;;4.38;;
47966;SDS011;33733;52.456;13.620;2022-11-15T03:59:26;9.43;;;4.72;;
47966;SDS011;33733;52.456;13.620;2022-11-15T04:02:11;11.35;;;5.82;;
47966;SDS011;33733;52.456;13.620;2022-11-15T04:04:57;10.13;;;3.83;;
47966;SDS011;33733;52.456;13.620;2022-11-15T04:07:43;10.50;;;3.85;;
47966;SDS011;33733;52.456;13.620;2022-11-15T04:10:28;10.70;;;3.92;;
47966;SDS011;33733;52.456;13.620;2022-11-15T04:13:13;10.02;;;4.80;;
47966;SDS011;33733;52.456;13.620;2022-11-15T04:15:58;10.57;;;4.22;;
47966;SDS011;33733;52.456;13.620;2022-11-15T04:18:43;11.65;;;4.20;;
47966;SDS011;33733;52.456;13.620;2022-11-15T04:21:29;12.20;;;6.30;;
47966;SDS011;33733;52.456;13.620;2022-11-15T04:24:33;9.27;;;4.47;;
47966;SDS011;33733;52.456;13.620;2022-11-15T04:27:18;8.82;;;3.75;;
47966;SDS011;33733;52.456;13.620;2022-11-15T04:30:03;7.80;;;3.72;;
47966;SDS011;33733;52.456;13.620;2022-11-15T04:32:48;10.20;;;4.40;;
47966;SDS011;33733;52.456;13.620;2022-11-15T04:35:33;9.45;;;4.57;;
47966;SDS011;33733;52.456;13.620;2022-11-15T04:38:19;10.20;;;3.72;;
47966;SDS011;33733;52.456;13.620;2022-11-15T04:41:04;9.25;;;3.80;;
47966;SDS011;33733;52.456;13.620;2022-11-15T04:43:49;9.50;;;4.03;;
47966;SDS011;33733;52.456;13.620;2022-11-15T04:46:35;10.63;;;4.35;;
47966;SDS011;33733;52.456;13.620;2022-11-15T04:49:20;9.68;;;4.75;;
47966;SDS011;33733;52.456;13.620;2022-11-15T04:52:05;9.05;;;4.25;;
47966;SDS011;33733;52.456;13.620;2022-11-15T04:54:50;15.38;;;4.10;;
47966;SDS011;33733;52.456;13.620;2022-11-15T04:57:36;9.73;;;4.65;;
47966;SDS011;33733;52.456;13.620;2022-11-15T05:00:22;8.98;;;4.50;;
47966;SDS011;33733;52.456;13.620;2022-11-15T05:03:08;9.25;;;3.95;;
47966;SDS011;33733;52.456;13.620;2022-11-15T05:06:13;11.52;;;5.72;;
47966;SDS011;33733;52.456;13.620;2022-11-15T05:08:58;7.82;;;3.58;;
47966;SDS011;33733;52.456;13.620;2022-11-15T05:11:44;10.77;;;5.07;;
47966;SDS011;33733;52.456;13.620;2022-11-15T05:14:29;7.95;;;3.67;;
47966;SDS011;33733;52.456;13.620;2022-11-15T05:17:14;8.70;;;4.22;;
47966;SDS011;33733;52.456;13.620;2022-11-15T05:19:59;10.93;;;4.18;;
47966;SDS011;33733;52.456;13.620;2022-11-15T05:22:45;12.15;;;4.97;;
47966;SDS011;33733;52.456;13.620;2022-11-15T05:25:30;9.27;;;3.80;;
47966;SDS011;33733;52.456;13.620;2022-11-15T05:28:15;9.73;;;4.72;;
47966;SDS011;33733;52.456;13.620;2022-11-15T05:33:55;7.95;;;3.22;;
47966;SDS011;33733;52.456;13.620;2022-11-15T05:36:41;9.48;;;4.80;;
47966;SDS011;33733;52.456;13.620;2022-11-15T05:39:27;7.50;;;3.40;;
47966;SDS011;33733;52.456;13.620;2022-11-15T05:42:13;7.80;;;3.60;;
47966;SDS011;33733;52.456;13.620;2022-11-15T05:44:59;9.23;;;4.68;;
47966;SDS011;33733;52.456;13.620;2022-11-15T05:47:48;9.40;;;4.63;;
47966;SDS011;33733;52.456;13.620;2022-11-15T05:50:34;10.73;;;4.93;;
47966;SDS011;33733;52.456;13.620;2022-11-15T05:53:20;8.32;;;3.88;;
47966;SDS011;33733;52.456;13.620;2022-11-15T05:56:08;8.90;;;4.25;;
47966;SDS011;33733;52.456;13.620;2022-11-15T05:58:53;9.23;;;4.55;;
47966;SDS011;33733;52.456;13.620;2022-11-15T06:01:43;7.70;;;3.63;;
47966;SDS011;33733;52.456;13.620;2022-11-15T06:04:28;9.55;;;3.90;;
47966;SDS011;33733;52.456;13.620;2022-11-15T06:07:14;10.90;;;4.80;;
47966;SDS011;33733;52.456;13.620;2022-11-15T06:09:59;8.77;;;4.45;;
47966;SDS011;33733;52.456;13.620;2022-11-15T06:12:44;8.63;;;3.80;;
47966;SDS011;33733;52.456;13.620;2022-11-15T06:15:29;8.20;;;3.67;;
47966;SDS011;33733;52.456;13.620;2022-11-15T06:18:14;10.20;;;3.83;;
47966;SDS011;33733;52.456;13.620;2022-11-15T06:21:00;8.80;;;3.92;;
47966;SDS011;33733;52.456;13.620;2022-11-15T06:23:45;10.95;;;4.30;;
47966;SDS011;33733;52.456;13.620;2022-11-15T06:26:30;11.68;;;4.65;;
47966;SDS011;33733;52.456;13.620;2022-11-15T06:29:15;10.70;;;3.53;;
47966;SDS011;33733;52.456;13.620;2022-11-15T06:32:01;9.55;;;3.75;;
47966;SDS011;33733;52.456;13.620;2022-11-15T06:34:46;10.52;;;4.45;;
47966;SDS011;33733;52.456;13.620;2022-11-15T06:37:31;9.50;;;4.45;;
47966;SDS011;33733;52.456;13.620;2022-11-15T06:40:16;10.02;;;3.95;;
47966;SDS011;33733;52.456;13.620;2022-11-15T06:43:01;8.25;;;3.95;;
47966;SDS011;33733;52.456;13.620;2022-11-15T06:45:47;7.78;;;3.83;;
47966;SDS011;33733;52.456;13.620;2022-11-15T06:48:33;10.82;;;5.13;;
47966;SDS011;33733;52.456;13.620;2022-11-15T06:51:18;7.75;;;3.40;;
47966;SDS011;33733;52.456;13.620;2022-11-15T06:54:04;9.10;;;4.82;;
47966;SDS011;33733;52.456;13.620;2022-11-15T06:56:49;10.07;;;4.45;;
47966;SDS011;33733;52.456;13.620;2022-11-15T06:59:35;9.98;;;4.70;;
47966;SDS011;33733;52.456;13.620;2022-11-15T07:02:24;9.93;;;4.65;;
47966;SDS011;33733;52.456;13.620;2022-11-15T07:05:10;7.43;;;4.00;;
47966;SDS011;33733;52.456;13.620;2022-11-15T07:07:56;8.00;;;3.13;;
47966;SDS011;33733;52.456;13.620;2022-11-15T07:10:42;8.40;;;3.97;;
47966;SDS011;33733;52.456;13.620;2022-11-15T07:13:27;8.52;;;4.57;;
47966;SDS011;33733;52.456;13.620;2022-11-15T07:16:14;8.57;;;4.13;;
47966;SDS011;33733;52.456;13.620;2022-11-15T07:18:59;8.45;;;3.80;;
47966;SDS011;33733;52.456;13.620;2022-11-15T07:21:44;7.53;;;3.60;;
47966;SDS011;33733;52.456;13.620;2022-11-15T07:24:30;9.45;;;4.20;;
47966;SDS011;33733;52.456;13.620;2022-11-15T07:27:15;8.93;;;3.67;;
47966;SDS011;33733;52.456;13.620;2022-11-15T07:30:00;10.73;;;4.60;;
47966;SDS011;33733;52.456;13.620;2022-11-15T07:32:45;8.68;;;4.40;;
47966;SDS011;33733;52.456;13.620;2022-11-15T07:35:31;10.35;;;4.90;;
47966;SDS011;33733;52.456;13.620;2022-11-15T07:38:16;9.95;;;3.70;;
47966;SDS011;33733;52.456;13.620;2022-11-15T07:41:05;11.80;;;5.43;;
47966;SDS011;33733;52.456;13.620;2022-11-15T07:43:53;11.43;;;5.50;;
47966;SDS011;33733;52.456;13.620;2022-11-15T07:46:38;8.05;;;4.20;;
47966;SDS011;33733;52.456;13.620;2022-11-15T07:49:23;11.35;;;4.95;;
47966;SDS011;33733;52.456;13.620;2022-11-15T07:52:08;10.60;;;5.10;;
47966;SDS011;33733;52.456;13.620;2022-11-15T07:54:53;11.02;;;4.88;;
47966;SDS011;33733;52.456;13.620;2022-11-15T07:57:39;9.80;;;4.28;;
47966;SDS011;33733;52.456;13.620;2022-11-15T08:00:24;9.05;;;5.30;;
47966;SDS011;33733;52.456;13.620;2022-11-15T08:03:10;10.48;;;4.78;;
47966;SDS011;33733;52.456;13.620;2022-11-15T08:05:56;8.27;;;4.40;;
47966;SDS011;33733;52.456;13.620;2022-11-15T08:08:42;10.75;;;4.75;;
47966;SDS011;33733;52.456;13.620;2022-11-15T08:11:27;12.88;;;4.13;;
47966;SDS011;33733;52.456;13.620;2022-11-15T08:14:12;11.68;;;4.78;;
47966;SDS011;33733;52.456;13.620;2022-11-15T08:16:57;12.25;;;5.97;;
47966;SDS011;33733;52.456;13.620;2022-11-15T08:19:43;15.30;;;6.80;;
47966;SDS011;33733;52.456;13.620;2022-11-15T08:22:28;12.25;;;6.03;;
47966;SDS011;33733;52.456;13.620;2022-11-15T08:25:14;12.35;;;5.45;;
47966;SDS011;33733;52.456;13.620;2022-11-15T08:28:01;8.38;;;4.18;;
47966;SDS011;33733;52.456;13.620;2022-11-15T08:30:48;12.32;;;5.07;;
47966;SDS011;33733;52.456;13.620;2022-11-15T08:33:33;9.93;;;4.60;;
47966;SDS011;33733;52.456;13.620;2022-11-15T08:36:20;8.88;;;4.57;;
47966;SDS011;33733;52.456;13.620;2022-11-15T08:39:05;9.70;;;4.55;;
47966;SDS011;33733;52.456;13.620;2022-11-15T08:41:50;9.73;;;4.95;;
47966;SDS011;33733;52.456;13.620;2022-11-15T08:44:36;9.88;;;4.97;;
47966;SDS011;33733;52.456;13.620;2022-11-15T08:47:24;11.25;;;5.28;;
47966;SDS011;33733;52.456;13.620;2022-11-15T08:50:10;10.05;;;4.85;;
47966;SDS011;33733;52.456;13.620;2022-11-15T08:52:55;10.15;;;4.78;;
47966;SDS011;33733;52.456;13.620;2022-11-15T08:55:40;12.43;;;6.20;;
47966;SDS011;33733;52.456;13.620;2022-11-15T08:58:25;10.50;;;5.10;;
47966;SDS011;33733;52.456;13.620;2022-11-15T09:01:17;10.00;;;4.30;;
47966;SDS011;33733;52.456;13.620;2022-11-15T09:04:03;10.95;;;4.85;;
47966;SDS011;33733;52.456;13.620;2022-11-15T09:06:48;10.10;;;4.95;;
47966;SDS011;33733;52.456;13.620;2022-11-15T09:09:34;11.98;;;5.93;;
47966;SDS011;33733;52.456;13.620;2022-11-15T09:12:19;14.82;;;5.97;;
47966;SDS011;33733;52.456;13.620;2022-11-15T09:15:04;12.35;;;5.47;;
47966;SDS011;33733;52.456;13.620;2022-11-15T09:17:50;14.75;;;7.38;;
47966;SDS011;33733;52.456;13.620;2022-11-15T09:20:36;15.00;;;6.20;;
47966;SDS011;33733;52.456;13.620;2022-11-15T09:23:21;13.48;;;6.03;;
47966;SDS011;33733;52.456;13.620;2022-11-15T09:26:06;12.25;;;5.82;;
47966;SDS011;33733;52.456;13.620;2022-11-15T09:28:54;13.25;;;6.35;;
47966;SDS011;33733;52.456;13.620;2022-11-15T09:31:39;14.63;;;6.15;;
47966;SDS011;33733;52.456;13.620;2022-11-15T09:34:25;13.73;;;6.13;;
47966;SDS011;33733;52.456;13.620;2022-11-15T09:37:10;16.08;;;7.00;;
47966;SDS011;33733;52.456;13.620;2022-11-15T09:39:57;10.98;;;4.75;;
47966;SDS011;33733;52.456;13.620;2022-11-15T09:42:52;13.50;;;5.72;;
47966;SDS011;33733;52.456;13.620;2022-11-15T09:49:15;13.95;;;6.75;;
47966;SDS011;33733;52.456;13.620;2022-11-15T09:52:08;10.60;;;4.55;;
47966;SDS011;33733;52.456;13.620;2022-11-15T09:54:35;11.25;;;4.53;;
47966;SDS011;33733;52.456;13.620;2022-11-15T10:00:18;11.70;;;4.97;;
47966;SDS011;33733;52.456;13.620;2022-11-15T10:05:44;11.55;;;4.40;;
47966;SDS011;33733;52.456;13.620;2022-11-15T10:08:16;13.68;;;5.38;;
47966;SDS011;33733;52.456;13.620;2022-11-15T10:10:50;12.25;;;5.68;;
47966;SDS011;33733;52.456;13.620;2022-11-15T10:13:40;13.27;;;5.60;;
47966;SDS011;33733;52.456;13.620;2022-11-15T10:24:58;9.68;;;4.47;;
47966;SDS011;33733;52.456;13.620;2022-11-15T10:27:36;10.02;;;4.43;;
47966;SDS011;33733;52.456;13.620;2022-11-15T10:30:04;10.55;;;4.72;;
47966;SDS011;33733;52.456;13.620;2022-11-15T10:32:41;9.82;;;4.10;;
47966;SDS011;33733;52.456;13.620;2022-11-15T10:35:16;11.10;;;4.80;;
47966;SDS011;33733;52.456;13.620;2022-11-15T10:37:48;9.70;;;4.88;;
47966;SDS011;33733;52.456;13.620;2022-11-15T10:40:22;11.30;;;4.28;;
47966;SDS011;33733;52.456;13.620;2022-11-15T10:45:38;9.80;;;4.32;;
47966;SDS011;33733;52.456;13.620;2022-11-15T10:50:38;10.05;;;4.25;;
47966;SDS011;33733;52.456;13.620;2022-11-15T10:58:19;10.07;;;3.90;;
47966;SDS011;33733;52.456;13.620;2022-11-15T11:01:17;8.65;;;3.80;;
47966;SDS011;33733;52.456;13.620;2022-11-15T11:03:59;10.85;;;4.00;;
47966;SDS011;33733;52.456;13.620;2022-11-15T11:06:28;10.10;;;4.13;;
47966;SDS011;33733;52.456;13.620;2022-11-15T11:09:02;10.73;;;3.67;;
47966;SDS011;33733;52.456;13.620;2022-11-15T11:11:43;12.32;;;4.45;;
47966;SDS011;33733;52.456;13.620;2022-11-15T11:14:33;10.25;;;4.53;;
47966;SDS011;33733;52.456;13.620;2022-11-15T11:25:17;11.13;;;3.63;;
47966;SDS011;33733;52.456;13.620;2022-11-15T11:30:43;9.18;;;4.00;;
47966;SDS011;33733;52.456;13.620;2022-11-15T11:35:52;9.93;;;4.50;;
47966;SDS011;33733;52.456;13.620;2022-11-15T11:39:10;9.88;;;3.67;;
47966;SDS011;33733;52.456;13.620;2022-11-15T11:45:05;7.63;;;3.35;;
47966;SDS011;33733;52.456;13.620;2022-11-15T11:47:40;8.52;;;3.58;;
47966;SDS011;33733;52.456;13.620;2022-11-15T11:50:25;10.20;;;3.95;;
47966;SDS011;33733;52.456;13.620;2022-11-15T11:52:57;11.02;;;4.07;;
47966;SDS011;33733;52.456;13.620;2022-11-15T11:55:34;8.60;;;3.95;;
47966;SDS011;33733;52.456;13.620;2022-11-15T11:58:15;8.60;;;3.75;;
47966;SDS011;33733;52.456;13.620;2022-11-15T12:00:49;8.45;;;3.30;;
47966;SDS011;33733;52.456;13.620;2022-11-15T12:03:51;8.70;;;3.83;;
47966;SDS011;33733;52.456;13.620;2022-11-15T12:16:59;9.32;;;3.42;;
47966;SDS011;33733;52.456;13.620;2022-11-15T12:19:26;9.75;;;3.53;;
47966;SDS011;33733;52.456;13.620;2022-11-15T12:21:59;8.20;;;3.25;;
47966;SDS011;33733;52.456;13.620;2022-11-15T12:24:28;9.75;;;3.92;;
47966;SDS011;33733;52.456;13.620;2022-11-15T12:27:35;7.18;;;3.00;;
47966;SDS011;33733;52.456;13.620;2022-11-15T12:30:09;8.70;;;3.72;;
47966;SDS011;33733;52.456;13.620;2022-11-15T12:32:39;10.23;;;4.13;;
47966;SDS011;33733;52.456;13.620;2022-11-15T12:38:09;8.88;;;3.20;;
47966;SDS011;33733;52.456;13.620;2022-11-15T12:40:38;10.70;;;3.47;;
47966;SDS011;33733;52.456;13.620;2022-11-15T12:45:35;9.25;;;3.35;;
47966;SDS011;33733;52.456;13.620;2022-11-15T13:12:47;8.25;;;2.80;;
47966;SDS011;33733;52.456;13.620;2022-11-15T13:17:48;7.95;;;2.30;;
47966;SDS011;33733;52.456;13.620;2022-11-15T13:25:19;7.90;;;2.72;;
47966;SDS011;33733;52.456;13.620;2022-11-15T13:27:47;8.07;;;2.95;;
47966;SDS011;33733;52.456;13.620;2022-11-15T13:30:22;7.13;;;2.60;;
47966;SDS011;33733;52.456;13.620;2022-11-15T13:32:50;7.38;;;2.90;;
47966;SDS011;33733;52.456;13.620;2022-11-15T13:35:21;8.07;;;3.45;;
47966;SDS011;33733;52.456;13.620;2022-11-15T13:37:49;7.40;;;3.20;;
47966;SDS011;33733;52.456;13.620;2022-11-15T13:42:57;7.28;;;3.17;;
47966;SDS011;33733;52.456;13.620;2022-11-15T13:45:24;8.18;;;3.40;;
47966;SDS011;33733;52.456;13.620;2022-11-15T13:47:57;7.30;;;2.85;;
47966;SDS011;33733;52.456;13.620;2022-11-15T13:50:26;8.82;;;2.83;;
47966;SDS011;33733;52.456;13.620;2022-11-15T13:52:56;7.60;;;2.85;;
47966;SDS011;33733;52.456;13.620;2022-11-15T13:55:25;8.75;;;3.20;;
47966;SDS011;33733;52.456;13.620;2022-11-15T13:57:56;7.63;;;2.92;;
47966;SDS011;33733;52.456;13.620;2022-11-15T14:02:54;6.13;;;2.78;;
47966;SDS011;33733;52.456;13.620;2022-11-15T14:05:22;6.32;;;2.65;;
47966;SDS011;33733;52.456;13.620;2022-11-15T14:07:54;6.43;;;2.40;;
47966;SDS011;33733;52.456;13.620;2022-11-15T14:12:56;8.50;;;3.03;;
47966;SDS011;33733;52.456;13.620;2022-11-15T14:15:33;9.25;;;3.33;;
47966;SDS011;33733;52.456;13.620;2022-11-15T14:18:01;9.15;;;2.88;;
47966;SDS011;33733;52.456;13.620;2022-11-15T14:20:33;7.22;;;3.08;;
47966;SDS011;33733;52.456;13.620;2022-11-15T14:23:03;7.53;;;2.75;;
47966;SDS011;33733;52.456;13.620;2022-11-15T14:25:54;6.53;;;2.78;;
47966;SDS011;33733;52.456;13.620;2022-11-15T14:30:48;5.47;;;2.17;;
47966;SDS011;33733;52.456;13.620;2022-11-15T14:33:24;7.63;;;2.80;;
47966;SDS011;33733;52.456;13.620;2022-11-15T14:35:51;9.32;;;2.42;;
47966;SDS011;33733;52.456;13.620;2022-11-15T14:38:18;7.35;;;3.10;;
47966;SDS011;33733;52.456;13.620;2022-11-15T14:40:45;7.40;;;2.88;;
47966;SDS011;33733;52.456;13.620;2022-11-15T14:43:12;7.03;;;2.30;;
47966;SDS011;33733;52.456;13.620;2022-11-15T14:45:40;7.07;;;2.30;;
47966;SDS011;33733;52.456;13.620;2022-11-15T14:48:07;7.75;;;2.55;;
47966;SDS011;33733;52.456;13.620;2022-11-15T14:50:34;7.15;;;2.42;;
47966;SDS011;33733;52.456;13.620;2022-11-15T14:53:02;6.80;;;2.78;;
47966;SDS011;33733;52.456;13.620;2022-11-15T14:55:30;7.20;;;2.75;;
47966;SDS011;33733;52.456;13.620;2022-11-15T14:58:01;7.68;;;2.60;;
47966;SDS011;33733;52.456;13.620;2022-11-15T15:00:32;6.93;;;2.50;;
47966;SDS011;33733;52.456;13.620;2022-11-15T15:03:01;8.13;;;2.13;;
47966;SDS011;33733;52.456;13.620;2022-11-15T15:05:31;5.90;;;2.25;;
47966;SDS011;33733;52.456;13.620;2022-11-15T15:08:01;6.63;;;2.13;;
47966;SDS011;33733;52.456;13.620;2022-11-15T15:10:32;7.72;;;2.88;;
47966;SDS011;33733;52.456;13.620;2022-11-15T15:13:15;6.00;;;2.40;;
47966;SDS011;33733;52.456;13.620;2022-11-15T15:15:50;6.80;;;2.17;;
47966;SDS011;33733;52.456;13.620;2022-11-15T15:18:17;6.43;;;1.90;;
47966;SDS011;33733;52.456;13.620;2022-11-15T15:23:16;8.80;;;2.20;;
47966;SDS011;33733;52.456;13.620;2022-11-15T15:25:45;8.35;;;2.53;;
47966;SDS011;33733;52.456;13.620;2022-11-15T15:28:26;8.85;;;3.25;;
47966;SDS011;33733;52.456;13.620;2022-11-15T15:30:59;7.57;;;2.40;;
47966;SDS011;33733;52.456;13.620;2022-11-15T15:33:26;7.78;;;3.22;;
47966;SDS011;33733;52.456;13.620;2022-11-15T15:35:53;8.18;;;3.25;;
47966;SDS011;33733;52.456;13.620;2022-11-15T15:38:20;6.93;;;3.10;;
47966;SDS011;33733;52.456;13.620;2022-11-15T15:40:50;8.23;;;3.08;;
47966;SDS011;33733;52.456;13.620;2022-11-15T15:43:17;7.22;;;2.65;;
47966;SDS011;33733;52.456;13.620;2022-11-15T15:45:46;7.78;;;2.83;;
47966;SDS011;33733;52.456;13.620;2022-11-15T15:48:16;7.95;;;3.13;;
47966;SDS011;33733;52.456;13.620;2022-11-15T15:50:43;8.23;;;3.38;;
47966;SDS011;33733;52.456;13.620;2022-11-15T15:53:12;9.32;;;3.70;;
47966;SDS011;33733;52.456;13.620;2022-11-15T15:55:39;8.50;;;3.38;;
47966;SDS011;33733;52.456;13.620;2022-11-15T15:58:07;8.05;;;3.53;;
47966;SDS011;33733;52.456;13.620;2022-11-15T16:00:36;8.13;;;3.53;;
47966;SDS011;33733;52.456;13.620;2022-11-15T16:03:03;8.60;;;4.05;;
47966;SDS011;33733;52.456;13.620;2022-11-15T16:05:29;9.98;;;4.65;;
47966;SDS011;33733;52.456;13.620;2022-11-15T16:07:56;11.70;;;4.38;;
47966;SDS011;33733;52.456;13.620;2022-11-15T16:10:31;8.90;;;3.67;;
47966;SDS011;33733;52.456;13.620;2022-11-15T16:12:59;13.13;;;4.13;;
47966;SDS011;33733;52.456;13.620;2022-11-15T16:15:29;11.15;;;4.03;;
47966;SDS011;33733;52.456;13.620;2022-11-15T16:18:04;10.05;;;4.72;;
47966;SDS011;33733;52.456;13.620;2022-11-15T16:20:36;9.02;;;4.57;;
47966;SDS011;33733;52.456;13.620;2022-11-15T16:23:06;12.23;;;4.65;;
47966;SDS011;33733;52.456;13.620;2022-11-15T16:28:16;9.32;;;4.03;;
47966;SDS011;33733;52.456;13.620;2022-11-15T16:30:43;12.07;;;4.60;;
47966;SDS011;33733;52.456;13.620;2022-11-15T16:33:10;12.02;;;6.10;;
47966;SDS011;33733;52.456;13.620;2022-11-15T16:35:37;10.98;;;5.20;;
47966;SDS011;33733;52.456;13.620;2022-11-15T16:38:03;11.10;;;4.70;;
47966;SDS011;33733;52.456;13.620;2022-11-15T16:40:31;12.20;;;5.90;;
47966;SDS011;33733;52.456;13.620;2022-11-15T16:42:59;12.40;;;5.53;;
47966;SDS011;33733;52.456;13.620;2022-11-15T16:45:28;14.70;;;6.35;;
47966;SDS011;33733;52.456;13.620;2022-11-15T16:47:55;14.98;;;7.03;;
47966;SDS011;33733;52.456;13.620;2022-11-15T16:50:26;12.32;;;5.78;;
47966;SDS011;33733;52.456;13.620;2022-11-15T16:52:55;11.95;;;5.13;;
47966;SDS011;33733;52.456;13.620;2022-11-15T16:55:24;13.68;;;5.93;;
47966;SDS011;33733;52.456;13.620;2022-11-15T16:57:51;16.88;;;6.88;;
47966;SDS011;33733;52.456;13.620;2022-11-15T17:00:18;16.35;;;6.45;;
47966;SDS011;33733;52.456;13.620;2022-11-15T17:02:45;15.32;;;6.60;;
47966;SDS011;33733;52.456;13.620;2022-11-15T17:05:14;12.60;;;6.60;;
47966;SDS011;33733;52.456;13.620;2022-11-15T17:07:46;13.32;;;6.75;;
47966;SDS011;33733;52.456;13.620;2022-11-15T17:10:23;14.38;;;6.95;;
47966;SDS011;33733;52.456;13.620;2022-11-15T17:12:51;15.68;;;7.13;;
47966;SDS011;33733;52.456;13.620;2022-11-15T17:15:18;14.50;;;6.82;;
47966;SDS011;33733;52.456;13.620;2022-11-15T17:17:49;13.68;;;6.68;;
47966;SDS011;33733;52.456;13.620;2022-11-15T17:20:20;15.68;;;7.72;;
47966;SDS011;33733;52.456;13.620;2022-11-15T17:22:48;16.33;;;6.53;;
47966;SDS011;33733;52.456;13.620;2022-11-15T17:25:14;16.55;;;7.28;;
47966;SDS011;33733;52.456;13.620;2022-11-15T17:27:41;16.52;;;7.93;;
47966;SDS011;33733;52.456;13.620;2022-11-15T17:30:08;15.73;;;7.40;;
47966;SDS011;33733;52.456;13.620;2022-11-15T17:32:36;16.95;;;7.05;;
47966;SDS011;33733;52.456;13.620;2022-11-15T17:35:03;16.38;;;6.90;;
47966;SDS011;33733;52.456;13.620;2022-11-15T17:37:39;17.27;;;7.32;;
47966;SDS011;33733;52.456;13.620;2022-11-15T17:40:05;19.80;;;9.80;;
47966;SDS011;33733;52.456;13.620;2022-11-15T17:42:35;17.42;;;8.27;;
47966;SDS011;33733;52.456;13.620;2022-11-15T17:45:01;22.38;;;9.20;;
47966;SDS011;33733;52.456;13.620;2022-11-15T17:47:35;14.32;;;7.15;;
47966;SDS011;33733;52.456;13.620;2022-11-15T17:50:02;13.85;;;6.18;;
47966;SDS011;33733;52.456;13.620;2022-11-15T17:52:28;16.13;;;7.05;;
47966;SDS011;33733;52.456;13.620;2022-11-15T17:54:55;14.70;;;6.32;;
47966;SDS011;33733;52.456;13.620;2022-11-15T17:57:21;12.98;;;6.43;;
47966;SDS011;33733;52.456;13.620;2022-11-15T17:59:48;15.73;;;7.10;;
47966;SDS011;33733;52.456;13.620;2022-11-15T18:02:15;14.90;;;6.70;;
47966;SDS011;33733;52.456;13.620;2022-11-15T18:04:41;14.98;;;6.63;;
47966;SDS011;33733;52.456;13.620;2022-11-15T18:07:08;17.75;;;8.45;;